sensor_id;sensor_type;location;lat;lon;timestamp;pressure;altitude;pressure_sealevel;temperature;humidity
84932;BME280;75193;53.980;13.902;2024-01-06T00:00:53;101001.16;;;-2.09;81.43
84932;BME280;75193;53.980;13.902;2024-01-06T00:03:18;101007.16;;;-2.08;81.15
84932;BME280;75193;53.980;13.902;2024-01-06T00:05:43;101006.28;;;-2.07;81.29
84932;BME280;75193;53.980;13.902;2024-01-06T00:08:09;101014.00;;;-2.03;80.60
84932;BME280;75193;53.980;13.902;2024-01-06T00:10:34;101011.44;;;-2.01;81.71
84932;BME280;75193;53.980;13.902;2024-01-06T00:12:59;101005.47;;;-1.99;81.27
84932;BME280;75193;53.980;13.902;2024-01-06T00:15:25;101003.75;;;-1.98;80.92
84932;BME280;75193;53.980;13.902;2024-01-06T00:17:50;101018.25;;;-2.00;80.46
84932;BME280;75193;53.980;13.902;2024-01-06T00:20:16;101007.16;;;-1.98;80.48
84932;BME280;75193;53.980;13.902;2024-01-06T00:22:41;101009.72;;;-1.96;80.14
84932;BME280;75193;53.980;13.902;2024-01-06T00:25:08;101014.84;;;-1.98;80.75
84932;BME280;75193;53.980;13.902;2024-01-06T00:27:33;101019.13;;;-1.97;81.26
84932;BME280;75193;53.980;13.902;2024-01-06T00:29:59;101019.13;;;-1.95;80.63
84932;BME280;75193;53.980;13.902;2024-01-06T00:32:24;101020.81;;;-1.99;80.90
84932;BME280;75193;53.980;13.902;2024-01-06T00:34:49;101019.97;;;-1.99;80.47
84932;BME280;75193;53.980;13.902;2024-01-06T00:37:15;101037.03;;;-1.98;80.42
84932;BME280;75193;53.980;13.902;2024-01-06T00:39:40;101022.53;;;-1.98;80.75
84932;BME280;75193;53.980;13.902;2024-01-06T00:42:06;101033.63;;;-1.97;80.83
84932;BME280;75193;53.980;13.902;2024-01-06T00:44:31;101028.50;;;-1.96;80.50
84932;BME280;75193;53.980;13.902;2024-01-06T00:46:56;101043.88;;;-1.97;80.74
84932;BME280;75193;53.980;13.902;2024-01-06T00:49:22;101045.56;;;-1.98;81.09
84932;BME280;75193;53.980;13.902;2024-01-06T00:51:47;101045.56;;;-1.98;80.65
84932;BME280;75193;53.980;13.902;2024-01-06T00:54:13;101051.56;;;-1.97;81.37
84932;BME280;75193;53.980;13.902;2024-01-06T00:56:38;101055.81;;;-1.93;80.49
84932;BME280;75193;53.980;13.902;2024-01-06T00:59:04;101057.50;;;-1.89;80.41
84932;BME280;75193;53.980;13.902;2024-01-06T01:01:29;101053.25;;;-1.93;80.51
84932;BME280;75193;53.980;13.902;2024-01-06T01:03:55;101049.84;;;-1.94;80.61
84932;BME280;75193;53.980;13.902;2024-01-06T01:06:20;101050.69;;;-1.93;79.86
84932;BME280;75193;53.980;13.902;2024-01-06T01:08:45;101050.69;;;-1.93;80.19
84932;BME280;75193;53.980;13.902;2024-01-06T01:11:11;101064.34;;;-1.91;79.20
84932;BME280;75193;53.980;13.902;2024-01-06T01:13:36;101060.94;;;-1.90;79.80
84932;BME280;75193;53.980;13.902;2024-01-06T01:16:02;101057.50;;;-1.86;79.47
84932;BME280;75193;53.980;13.902;2024-01-06T01:18:28;101065.19;;;-1.86;79.47
84932;BME280;75193;53.980;13.902;2024-01-06T01:20:53;101080.59;;;-1.85;78.75
84932;BME280;75193;53.980;13.902;2024-01-06T01:23:19;101072.06;;;-1.85;78.46
84932;BME280;75193;53.980;13.902;2024-01-06T01:25:44;101067.78;;;-1.85;79.27
84932;BME280;75193;53.980;13.902;2024-01-06T01:28:10;101068.63;;;-1.89;79.55
84932;BME280;75193;53.980;13.902;2024-01-06T01:30:35;101081.41;;;-1.90;79.61
84932;BME280;75193;53.980;13.902;2024-01-06T01:33:01;101069.47;;;-1.93;79.48
84932;BME280;75193;53.980;13.902;2024-01-06T01:35:26;101078.84;;;-1.93;79.96
84932;BME280;75193;53.980;13.902;2024-01-06T01:37:51;101080.56;;;-1.94;79.89
84932;BME280;75193;53.980;13.902;2024-01-06T01:40:17;101082.28;;;-1.93;79.66
84932;BME280;75193;53.980;13.902;2024-01-06T01:42:43;101085.69;;;-1.92;80.20
84932;BME280;75193;53.980;13.902;2024-01-06T01:45:08;101083.13;;;-1.95;80.55
84932;BME280;75193;53.980;13.902;2024-01-06T01:47:34;101078.00;;;-1.92;80.50
84932;BME280;75193;53.980;13.902;2024-01-06T01:50:00;101083.13;;;-1.95;81.04
84932;BME280;75193;53.980;13.902;2024-01-06T01:52:26;101082.28;;;-1.94;81.33
84932;BME280;75193;53.980;13.902;2024-01-06T01:54:52;101077.16;;;-1.94;81.43
84932;BME280;75193;53.980;13.902;2024-01-06T01:57:18;101071.19;;;-1.95;80.50
84932;BME280;75193;53.980;13.902;2024-01-06T01:59:44;101080.56;;;-1.97;80.33
84932;BME280;75193;53.980;13.902;2024-01-06T02:02:10;101068.63;;;-1.96;80.20
84932;BME280;75193;53.980;13.902;2024-01-06T02:04:36;101086.53;;;-1.95;80.16
84932;BME280;75193;53.980;13.902;2024-01-06T02:07:01;101089.09;;;-1.95;80.14
84932;BME280;75193;53.980;13.902;2024-01-06T02:09:27;101092.50;;;-1.91;80.82
84932;BME280;75193;53.980;13.902;2024-01-06T02:11:56;101089.09;;;-1.96;80.62
84932;BME280;75193;53.980;13.902;2024-01-06T02:14:23;101100.19;;;-1.97;80.72
84932;BME280;75193;53.980;13.902;2024-01-06T02:16:48;101096.78;;;-1.99;81.00
84932;BME280;75193;53.980;13.902;2024-01-06T02:19:16;101095.06;;;-2.00;81.22
84932;BME280;75193;53.980;13.902;2024-01-06T02:21:43;101094.22;;;-2.01;80.70
84932;BME280;75193;53.980;13.902;2024-01-06T02:24:09;101100.19;;;-2.00;80.40
84932;BME280;75193;53.980;13.902;2024-01-06T02:26:35;101093.38;;;-1.98;81.35
84932;BME280;75193;53.980;13.902;2024-01-06T02:29:00;101094.22;;;-1.96;80.59
84932;BME280;75193;53.980;13.902;2024-01-06T02:31:27;101099.34;;;-1.96;81.33
84932;BME280;75193;53.980;13.902;2024-01-06T02:33:53;101103.63;;;-1.95;81.08
84932;BME280;75193;53.980;13.902;2024-01-06T02:36:18;101109.59;;;-1.99;81.34
84932;BME280;75193;53.980;13.902;2024-01-06T02:38:43;101114.72;;;-1.96;82.03
84932;BME280;75193;53.980;13.902;2024-01-06T02:41:09;101113.00;;;-1.99;81.89
84932;BME280;75193;53.980;13.902;2024-01-06T02:43:34;101118.97;;;-1.97;82.01
84932;BME280;75193;53.980;13.902;2024-01-06T02:46:00;101121.53;;;-1.94;81.76
84932;BME280;75193;53.980;13.902;2024-01-06T02:48:26;101117.25;;;-1.96;82.05
84932;BME280;75193;53.980;13.902;2024-01-06T02:50:51;101122.38;;;-1.93;82.31
84932;BME280;75193;53.980;13.902;2024-01-06T02:53:16;101112.16;;;-2.02;82.12
84932;BME280;75193;53.980;13.902;2024-01-06T02:55:42;101112.16;;;-2.01;82.95
84932;BME280;75193;53.980;13.902;2024-01-06T02:58:07;101112.09;;;-2.05;83.07
84932;BME280;75193;53.980;13.902;2024-01-06T03:00:33;101117.22;;;-2.07;83.27
84932;BME280;75193;53.980;13.902;2024-01-06T03:02:58;101128.31;;;-2.08;83.79
84932;BME280;75193;53.980;13.902;2024-01-06T03:05:24;101128.31;;;-2.05;83.20
84932;BME280;75193;53.980;13.902;2024-01-06T03:07:49;101129.19;;;-2.06;83.59
84932;BME280;75193;53.980;13.902;2024-01-06T03:10:15;101118.97;;;-2.04;83.99
84932;BME280;75193;53.980;13.902;2024-01-06T03:12:40;101135.19;;;-2.04;83.64
84932;BME280;75193;53.980;13.902;2024-01-06T03:15:06;101125.78;;;-2.03;84.37
84932;BME280;75193;53.980;13.902;2024-01-06T03:17:32;101133.47;;;-2.02;83.69
84932;BME280;75193;53.980;13.902;2024-01-06T03:19:57;101139.47;;;-2.00;84.19
84932;BME280;75193;53.980;13.902;2024-01-06T03:22:23;101135.19;;;-1.98;84.74
84932;BME280;75193;53.980;13.902;2024-01-06T03:24:48;101150.53;;;-2.02;83.24
84932;BME280;75193;53.980;13.902;2024-01-06T03:27:14;101142.88;;;-2.02;83.45
84932;BME280;75193;53.980;13.902;2024-01-06T03:29:39;101142.00;;;-2.01;83.70
84932;BME280;75193;53.980;13.902;2024-01-06T03:32:05;101148.00;;;-1.99;83.27
84932;BME280;75193;53.980;13.902;2024-01-06T03:34:31;101154.81;;;-2.01;83.17
84932;BME280;75193;53.980;13.902;2024-01-06T03:36:56;101152.25;;;-2.01;82.86
84932;BME280;75193;53.980;13.902;2024-01-06T03:39:21;101156.47;;;-2.05;83.25
84932;BME280;75193;53.980;13.902;2024-01-06T03:41:48;101167.63;;;-2.00;83.47
84932;BME280;75193;53.980;13.902;2024-01-06T03:44:14;101160.78;;;-2.01;83.03
84932;BME280;75193;53.980;13.902;2024-01-06T03:46:39;101159.94;;;-2.01;83.48
84932;BME280;75193;53.980;13.902;2024-01-06T03:49:04;101169.31;;;-2.02;82.79
84932;BME280;75193;53.980;13.902;2024-01-06T03:51:30;101155.69;;;-1.99;82.81
84932;BME280;75193;53.980;13.902;2024-01-06T03:53:55;101160.78;;;-1.99;82.26
84932;BME280;75193;53.980;13.902;2024-01-06T03:56:21;101166.78;;;-1.99;82.23
84932;BME280;75193;53.980;13.902;2024-01-06T03:58:46;101172.75;;;-1.98;81.96
84932;BME280;75193;53.980;13.902;2024-01-06T04:01:12;101167.63;;;-2.00;82.00
84932;BME280;75193;53.980;13.902;2024-01-06T04:03:38;101176.16;;;-1.93;81.94
84932;BME280;75193;53.980;13.902;2024-01-06T04:06:06;101176.16;;;-1.93;81.76
84932;BME280;75193;53.980;13.902;2024-01-06T04:08:31;101188.97;;;-1.92;82.59
84932;BME280;75193;53.980;13.902;2024-01-06T04:11:00;101194.94;;;-1.90;81.79
84932;BME280;75193;53.980;13.902;2024-01-06T04:13:25;101182.13;;;-1.91;82.27
84932;BME280;75193;53.980;13.902;2024-01-06T04:15:51;101179.59;;;-1.90;81.31
84932;BME280;75193;53.980;13.902;2024-01-06T04:18:16;101194.09;;;-1.87;80.98
84932;BME280;75193;53.980;13.902;2024-01-06T04:20:42;101183.00;;;-1.89;81.92
84932;BME280;75193;53.980;13.902;2024-01-06T04:23:07;101183.84;;;-1.87;81.58
84932;BME280;75193;53.980;13.902;2024-01-06T04:25:33;101182.19;;;-1.85;80.41
84932;BME280;75193;53.980;13.902;2024-01-06T04:27:58;101212.06;;;-1.86;80.68
84932;BME280;75193;53.980;13.902;2024-01-06T04:30:24;101186.41;;;-1.89;80.97
84932;BME280;75193;53.980;13.902;2024-01-06T04:32:51;101184.75;;;-1.84;80.35
84932;BME280;75193;53.980;13.902;2024-01-06T04:35:17;101197.56;;;-1.82;81.24
84932;BME280;75193;53.980;13.902;2024-01-06T04:37:42;101190.72;;;-1.78;80.91
84932;BME280;75193;53.980;13.902;2024-01-06T04:40:08;101189.88;;;-1.73;79.89
84932;BME280;75193;53.980;13.902;2024-01-06T04:42:34;101194.16;;;-1.70;80.03
84932;BME280;75193;53.980;13.902;2024-01-06T04:44:59;101198.41;;;-1.68;79.84
84932;BME280;75193;53.980;13.902;2024-01-06T04:47:24;101190.75;;;-1.65;78.30
84932;BME280;75193;53.980;13.902;2024-01-06T04:49:50;101188.22;;;-1.63;78.63
84932;BME280;75193;53.980;13.902;2024-01-06T04:52:15;101203.59;;;-1.56;78.08
84932;BME280;75193;53.980;13.902;2024-01-06T04:54:41;101193.31;;;-1.56;78.31
84932;BME280;75193;53.980;13.902;2024-01-06T04:57:06;101215.53;;;-1.53;78.02
84932;BME280;75193;53.980;13.902;2024-01-06T04:59:32;101203.59;;;-1.51;78.34
84932;BME280;75193;53.980;13.902;2024-01-06T05:01:58;101206.13;;;-1.54;78.78
84932;BME280;75193;53.980;13.902;2024-01-06T05:04:24;101218.09;;;-1.52;76.85
84932;BME280;75193;53.980;13.902;2024-01-06T05:06:51;101218.09;;;-1.52;77.86
84932;BME280;75193;53.980;13.902;2024-01-06T05:09:17;101208.75;;;-1.48;77.43
84932;BME280;75193;53.980;13.902;2024-01-06T05:11:45;101227.53;;;-1.47;76.99
84932;BME280;75193;53.980;13.902;2024-01-06T05:14:11;101219.00;;;-1.46;76.65
84932;BME280;75193;53.980;13.902;2024-01-06T05:16:37;101217.28;;;-1.44;76.81
84932;BME280;75193;53.980;13.902;2024-01-06T05:19:02;101219.00;;;-1.48;77.19
84932;BME280;75193;53.980;13.902;2024-01-06T05:21:29;101228.38;;;-1.45;76.65
84932;BME280;75193;53.980;13.902;2024-01-06T05:23:54;101252.31;;;-1.43;75.75
84932;BME280;75193;53.980;13.902;2024-01-06T05:26:20;101237.78;;;-1.46;76.20
84932;BME280;75193;53.980;13.902;2024-01-06T05:28:45;101240.34;;;-1.43;75.85
84932;BME280;75193;53.980;13.902;2024-01-06T05:31:10;101254.00;;;-1.45;75.28
84932;BME280;75193;53.980;13.902;2024-01-06T05:33:36;101255.72;;;-1.40;75.25
84932;BME280;75193;53.980;13.902;2024-01-06T05:36:01;101268.53;;;-1.40;75.83
84932;BME280;75193;53.980;13.902;2024-01-06T05:38:27;101260.00;;;-1.36;75.74
84932;BME280;75193;53.980;13.902;2024-01-06T05:40:52;101253.16;;;-1.32;74.89
84932;BME280;75193;53.980;13.902;2024-01-06T05:43:18;101266.84;;;-1.33;75.53
84932;BME280;75193;53.980;13.902;2024-01-06T05:45:43;101254.03;;;-1.33;74.70
84932;BME280;75193;53.980;13.902;2024-01-06T05:48:10;101267.72;;;-1.28;73.90
84932;BME280;75193;53.980;13.902;2024-01-06T05:50:39;101274.56;;;-1.29;74.46
84932;BME280;75193;53.980;13.902;2024-01-06T05:53:05;101277.13;;;-1.30;75.10
84932;BME280;75193;53.980;13.902;2024-01-06T05:55:30;101289.06;;;-1.31;74.85
84932;BME280;75193;53.980;13.902;2024-01-06T05:57:56;101283.94;;;-1.31;74.98
84932;BME280;75193;53.980;13.902;2024-01-06T06:00:21;101283.97;;;-1.20;73.77
84932;BME280;75193;53.980;13.902;2024-01-06T06:02:47;101289.94;;;-1.23;74.09
84932;BME280;75193;53.980;13.902;2024-01-06T06:05:12;101299.34;;;-1.25;73.42
84932;BME280;75193;53.980;13.902;2024-01-06T06:07:39;101297.63;;;-1.23;73.75
84932;BME280;75193;53.980;13.902;2024-01-06T06:10:08;101305.31;;;-1.24;73.63
84932;BME280;75193;53.980;13.902;2024-01-06T06:12:34;101301.91;;;-1.26;73.72
84932;BME280;75193;53.980;13.902;2024-01-06T06:15:00;101310.44;;;-1.27;74.02
84932;BME280;75193;53.980;13.902;2024-01-06T06:17:26;101307.88;;;-1.21;74.27
84932;BME280;75193;53.980;13.902;2024-01-06T06:19:51;101314.72;;;-1.25;74.30
84932;BME280;75193;53.980;13.902;2024-01-06T06:22:16;101315.56;;;-1.24;74.27
84932;BME280;75193;53.980;13.902;2024-01-06T06:24:42;101313.00;;;-1.26;74.01
84932;BME280;75193;53.980;13.902;2024-01-06T06:27:08;101345.50;;;-1.25;74.14
84932;BME280;75193;53.980;13.902;2024-01-06T06:29:33;101327.53;;;-1.23;74.13
84932;BME280;75193;53.980;13.902;2024-01-06T06:31:59;101332.66;;;-1.26;74.52
84932;BME280;75193;53.980;13.902;2024-01-06T06:34:25;101337.78;;;-1.26;75.10
84932;BME280;75193;53.980;13.902;2024-01-06T06:36:50;101330.09;;;-1.20;74.37
84932;BME280;75193;53.980;13.902;2024-01-06T06:39:16;101352.31;;;-1.24;74.84
84932;BME280;75193;53.980;13.902;2024-01-06T06:41:41;101351.47;;;-1.19;74.51
84932;BME280;75193;53.980;13.902;2024-01-06T06:44:07;101354.03;;;-1.19;73.92
84932;BME280;75193;53.980;13.902;2024-01-06T06:46:32;101362.59;;;-1.22;74.65
84932;BME280;75193;53.980;13.902;2024-01-06T06:48:57;101364.28;;;-1.23;74.29
84932;BME280;75193;53.980;13.902;2024-01-06T06:51:23;101372.84;;;-1.20;74.15
84932;BME280;75193;53.980;13.902;2024-01-06T06:53:51;101372.84;;;-1.24;74.92
84932;BME280;75193;53.980;13.902;2024-01-06T06:56:17;101372.84;;;-1.22;75.18
84932;BME280;75193;53.980;13.902;2024-01-06T06:58:43;101385.66;;;-1.20;75.80
84932;BME280;75193;53.980;13.902;2024-01-06T07:01:08;101389.06;;;-1.20;75.09
84932;BME280;75193;53.980;13.902;2024-01-06T07:03:34;101387.38;;;-1.18;73.67
84932;BME280;75193;53.980;13.902;2024-01-06T07:05:59;101409.59;;;-1.18;73.71
84932;BME280;75193;53.980;13.902;2024-01-06T07:08:25;101391.66;;;-1.14;73.93
84932;BME280;75193;53.980;13.902;2024-01-06T07:10:50;101395.06;;;-1.19;74.24
84932;BME280;75193;53.980;13.902;2024-01-06T07:13:16;101406.19;;;-1.16;74.60
84932;BME280;75193;53.980;13.902;2024-01-06T07:15:41;101414.72;;;-1.22;74.02
84932;BME280;75193;53.980;13.902;2024-01-06T07:18:07;101413.00;;;-1.21;73.58
84932;BME280;75193;53.980;13.902;2024-01-06T07:20:32;101407.88;;;-1.24;73.45
84932;BME280;75193;53.980;13.902;2024-01-06T07:22:58;101413.00;;;-1.19;73.16
84932;BME280;75193;53.980;13.902;2024-01-06T07:25:23;101414.72;;;-1.22;73.88
84932;BME280;75193;53.980;13.902;2024-01-06T07:27:48;101420.72;;;-1.16;73.33
84932;BME280;75193;53.980;13.902;2024-01-06T07:30:14;101421.56;;;-1.17;72.81
84932;BME280;75193;53.980;13.902;2024-01-06T07:32:40;101420.75;;;-1.10;71.96
84932;BME280;75193;53.980;13.902;2024-01-06T07:35:05;101424.13;;;-1.14;73.19
84932;BME280;75193;53.980;13.902;2024-01-06T07:37:31;101428.41;;;-1.12;73.00
84932;BME280;75193;53.980;13.902;2024-01-06T07:39:56;101437.00;;;-1.11;72.83
84932;BME280;75193;53.980;13.902;2024-01-06T07:42:22;101444.69;;;-1.10;73.97
84932;BME280;75193;53.980;13.902;2024-01-06T07:44:47;101442.97;;;-1.11;73.28
84932;BME280;75193;53.980;13.902;2024-01-06T07:47:13;101450.69;;;-1.09;72.46
84932;BME280;75193;53.980;13.902;2024-01-06T07:49:40;101456.66;;;-1.09;71.45
84932;BME280;75193;53.980;13.902;2024-01-06T07:52:05;101454.06;;;-1.12;71.92
84932;BME280;75193;53.980;13.902;2024-01-06T07:54:30;101453.19;;;-1.15;72.31
84932;BME280;75193;53.980;13.902;2024-01-06T07:56:56;101474.56;;;-1.15;72.24
84932;BME280;75193;53.980;13.902;2024-01-06T07:59:21;101464.34;;;-1.09;71.28
84932;BME280;75193;53.980;13.902;2024-01-06T08:01:47;101467.75;;;-1.11;71.13
84932;BME280;75193;53.980;13.902;2024-01-06T08:04:12;101474.63;;;-1.06;71.11
84932;BME280;75193;53.980;13.902;2024-01-06T08:06:38;101481.44;;;-1.08;71.90
84932;BME280;75193;53.980;13.902;2024-01-06T08:09:03;101484.88;;;-1.06;71.84
84932;BME280;75193;53.980;13.902;2024-01-06T08:11:29;101484.03;;;-1.05;71.73
84932;BME280;75193;53.980;13.902;2024-01-06T08:13:54;101477.22;;;-0.94;71.13
84932;BME280;75193;53.980;13.902;2024-01-06T08:16:20;101488.31;;;-0.96;71.08
84932;BME280;75193;53.980;13.902;2024-01-06T08:18:45;101486.59;;;-0.97;71.15
84932;BME280;75193;53.980;13.902;2024-01-06T08:21:11;101488.31;;;-0.99;71.48
84932;BME280;75193;53.980;13.902;2024-01-06T08:23:37;101476.34;;;-0.99;71.10
84932;BME280;75193;53.980;13.902;2024-01-06T08:26:03;101487.44;;;-1.04;70.83
84932;BME280;75193;53.980;13.902;2024-01-06T08:28:29;101494.31;;;-0.99;69.89
84932;BME280;75193;53.980;13.902;2024-01-06T08:30:55;101501.13;;;-1.01;69.28
84932;BME280;75193;53.980;13.902;2024-01-06T08:33:20;101498.56;;;-0.99;69.31
84932;BME280;75193;53.980;13.902;2024-01-06T08:35:46;101492.59;;;-0.97;70.38
84932;BME280;75193;53.980;13.902;2024-01-06T08:38:11;101508.84;;;-0.96;70.38
84932;BME280;75193;53.980;13.902;2024-01-06T08:40:37;101509.69;;;-0.96;70.73
84932;BME280;75193;53.980;13.902;2024-01-06T08:43:03;101501.19;;;-0.92;70.19
84932;BME280;75193;53.980;13.902;2024-01-06T08:45:28;101502.84;;;-0.98;70.31
84932;BME280;75193;53.980;13.902;2024-01-06T08:47:54;101506.31;;;-0.90;69.40
84932;BME280;75193;53.980;13.902;2024-01-06T08:50:20;101506.34;;;-0.88;70.12
84932;BME280;75193;53.980;13.902;2024-01-06T08:52:45;101514.91;;;-0.80;69.36
84932;BME280;75193;53.980;13.902;2024-01-06T08:55:11;101524.28;;;-0.85;69.90
84932;BME280;75193;53.980;13.902;2024-01-06T08:57:36;101520.03;;;-0.80;69.83
84932;BME280;75193;53.980;13.902;2024-01-06T09:00:06;101522.59;;;-0.76;68.24
84932;BME280;75193;53.980;13.902;2024-01-06T09:02:31;101535.47;;;-0.74;69.52
84932;BME280;75193;53.980;13.902;2024-01-06T09:04:57;101530.31;;;-0.77;69.25
84932;BME280;75193;53.980;13.902;2024-01-06T09:07:22;101532.88;;;-0.77;69.05
84932;BME280;75193;53.980;13.902;2024-01-06T09:09:47;101541.44;;;-0.75;69.30
84932;BME280;75193;53.980;13.902;2024-01-06T09:12:13;101550.03;;;-0.72;68.53
84932;BME280;75193;53.980;13.902;2024-01-06T09:14:38;101551.72;;;-0.74;68.59
84932;BME280;75193;53.980;13.902;2024-01-06T09:17:04;101556.88;;;-0.72;69.08
84932;BME280;75193;53.980;13.902;2024-01-06T09:19:29;101556.88;;;-0.65;68.57
84932;BME280;75193;53.980;13.902;2024-01-06T09:21:55;101573.97;;;-0.68;69.88
84932;BME280;75193;53.980;13.902;2024-01-06T09:24:21;101569.72;;;-0.63;68.86
84932;BME280;75193;53.980;13.902;2024-01-06T09:26:46;101586.81;;;-0.62;68.79
84932;BME280;75193;53.980;13.902;2024-01-06T09:29:12;101580.00;;;-0.60;67.35
84932;BME280;75193;53.980;13.902;2024-01-06T09:31:38;101593.66;;;-0.64;68.17
84932;BME280;75193;53.980;13.902;2024-01-06T09:34:03;101601.38;;;-0.66;68.98
84932;BME280;75193;53.980;13.902;2024-01-06T09:36:31;101598.81;;;-0.61;67.76
84932;BME280;75193;53.980;13.902;2024-01-06T09:38:56;101602.22;;;-0.64;68.68
84932;BME280;75193;53.980;13.902;2024-01-06T09:41:22;101613.34;;;-0.63;67.63
84932;BME280;75193;53.980;13.902;2024-01-06T09:43:48;101611.63;;;-0.63;67.46
84932;BME280;75193;53.980;13.902;2024-01-06T09:46:27;101608.22;;;-0.65;67.79
84932;BME280;75193;53.980;13.902;2024-01-06T09:48:53;101612.47;;;-0.65;68.39
84932;BME280;75193;53.980;13.902;2024-01-06T09:51:20;101619.34;;;-0.61;69.20
84932;BME280;75193;53.980;13.902;2024-01-06T09:53:49;101627.88;;;-0.64;67.97
84932;BME280;75193;53.980;13.902;2024-01-06T09:56:15;101629.59;;;-0.63;66.66
84932;BME280;75193;53.980;13.902;2024-01-06T09:58:42;101621.03;;;-0.68;68.26
84932;BME280;75193;53.980;13.902;2024-01-06T10:01:09;101634.72;;;-0.64;69.20
84932;BME280;75193;53.980;13.902;2024-01-06T10:03:38;101633.84;;;-0.71;68.27
84932;BME280;75193;53.980;13.902;2024-01-06T10:06:03;101639.84;;;-0.67;69.19
84932;BME280;75193;53.980;13.902;2024-01-06T10:08:32;101644.97;;;-0.70;68.07
84932;BME280;75193;53.980;13.902;2024-01-06T10:11:01;101652.63;;;-0.75;67.96
84932;BME280;75193;53.980;13.902;2024-01-06T10:13:27;101645.81;;;-0.73;67.39
84932;BME280;75193;53.980;13.902;2024-01-06T10:15:55;101649.25;;;-0.72;67.47
84932;BME280;75193;53.980;13.902;2024-01-06T10:18:21;101641.53;;;-0.74;68.50
84932;BME280;75193;53.980;13.902;2024-01-06T10:20:47;101643.28;;;-0.68;68.72
84932;BME280;75193;53.980;13.902;2024-01-06T10:23:12;101661.22;;;-0.73;66.63
84932;BME280;75193;53.980;13.902;2024-01-06T10:25:38;101659.50;;;-0.74;68.68
84932;BME280;75193;53.980;13.902;2024-01-06T10:28:04;101653.47;;;-0.76;67.68
84932;BME280;75193;53.980;13.902;2024-01-06T10:30:30;101657.75;;;-0.75;67.69
84932;BME280;75193;53.980;13.902;2024-01-06T10:32:55;101649.19;;;-0.78;66.81
84932;BME280;75193;53.980;13.902;2024-01-06T10:35:21;101651.81;;;-0.71;68.33
84932;BME280;75193;53.980;13.902;2024-01-06T10:37:47;101665.50;;;-0.69;68.31
84932;BME280;75193;53.980;13.902;2024-01-06T10:40:17;101660.38;;;-0.72;68.04
84932;BME280;75193;53.980;13.902;2024-01-06T10:42:42;101642.41;;;-0.73;66.81
84932;BME280;75193;53.980;13.902;2024-01-06T10:45:13;101656.09;;;-0.68;68.04
84932;BME280;75193;53.980;13.902;2024-01-06T10:47:41;101657.00;;;-0.60;68.87
84932;BME280;75193;53.980;13.902;2024-01-06T10:50:07;101670.66;;;-0.61;66.95
84932;BME280;75193;53.980;13.902;2024-01-06T10:52:33;101659.53;;;-0.66;66.68
84932;BME280;75193;53.980;13.902;2024-01-06T10:55:01;101657.00;;;-0.60;68.34
84932;BME280;75193;53.980;13.902;2024-01-06T10:57:27;101647.59;;;-0.58;68.14
84932;BME280;75193;53.980;13.902;2024-01-06T10:59:53;101667.22;;;-0.66;67.06
84932;BME280;75193;53.980;13.902;2024-01-06T11:02:19;101656.13;;;-0.65;67.47
84932;BME280;75193;53.980;13.902;2024-01-06T11:04:48;101670.66;;;-0.63;68.60
84932;BME280;75193;53.980;13.902;2024-01-06T11:07:17;101669.78;;;-0.66;67.97
84932;BME280;75193;53.980;13.902;2024-01-06T11:09:57;101669.78;;;-0.66;67.95
84932;BME280;75193;53.980;13.902;2024-01-06T11:12:28;101667.25;;;-0.65;67.74
84932;BME280;75193;53.980;13.902;2024-01-06T11:14:53;101675.81;;;-0.63;67.89
84932;BME280;75193;53.980;13.902;2024-01-06T11:20:13;101664.66;;;-0.69;67.43
84932;BME280;75193;53.980;13.902;2024-01-06T11:22:38;101674.06;;;-0.68;67.15
84932;BME280;75193;53.980;13.902;2024-01-06T11:25:14;101676.63;;;-0.67;67.88
84932;BME280;75193;53.980;13.902;2024-01-06T11:27:41;101668.94;;;-0.64;69.26
84932;BME280;75193;53.980;13.902;2024-01-06T11:30:07;101665.53;;;-0.66;68.94
84932;BME280;75193;53.980;13.902;2024-01-06T11:32:34;101667.22;;;-0.68;68.13
84932;BME280;75193;53.980;13.902;2024-01-06T11:35:06;101652.69;;;-0.67;67.78
84932;BME280;75193;53.980;13.902;2024-01-06T11:43:10;101665.50;;;-0.70;66.75
84932;BME280;75193;53.980;13.902;2024-01-06T11:45:41;101662.09;;;-0.71;66.50
84932;BME280;75193;53.980;13.902;2024-01-06T11:48:09;101676.56;;;-0.77;67.39
84932;BME280;75193;53.980;13.902;2024-01-06T11:50:36;101659.44;;;-0.78;66.68
84932;BME280;75193;53.980;13.902;2024-01-06T11:53:03;101656.09;;;-0.73;66.84
84932;BME280;75193;53.980;13.902;2024-01-06T11:55:29;101658.63;;;-0.74;68.17
84932;BME280;75193;53.980;13.902;2024-01-06T11:57:58;101660.31;;;-0.76;67.56
84932;BME280;75193;53.980;13.902;2024-01-06T12:00:30;101665.44;;;-0.76;67.75
84932;BME280;75193;53.980;13.902;2024-01-06T12:02:57;101659.47;;;-0.75;67.82
84932;BME280;75193;53.980;13.902;2024-01-06T12:05:23;101656.91;;;-0.75;68.15
84932;BME280;75193;53.980;13.902;2024-01-06T12:08:00;101667.16;;;-0.75;67.30
84932;BME280;75193;53.980;13.902;2024-01-06T12:10:27;101673.19;;;-0.72;68.77
84932;BME280;75193;53.980;13.902;2024-01-06T12:13:03;101665.50;;;-0.70;67.76
84932;BME280;75193;53.980;13.902;2024-01-06T12:15:31;101659.47;;;-0.75;67.97
84932;BME280;75193;53.980;13.902;2024-01-06T12:17:57;101659.47;;;-0.75;68.60
84932;BME280;75193;53.980;13.902;2024-01-06T12:20:23;101657.78;;;-0.73;68.90
84932;BME280;75193;53.980;13.902;2024-01-06T12:22:52;101656.06;;;-0.74;67.99
84932;BME280;75193;53.980;13.902;2024-01-06T12:25:18;101666.34;;;-0.73;68.34
84932;BME280;75193;53.980;13.902;2024-01-06T12:27:44;101664.66;;;-0.69;69.28
84932;BME280;75193;53.980;13.902;2024-01-06T12:30:18;101668.94;;;-0.68;68.33
84932;BME280;75193;53.980;13.902;2024-01-06T12:32:45;101667.22;;;-0.66;69.63
84932;BME280;75193;53.980;13.902;2024-01-06T12:35:11;101661.22;;;-0.68;68.47
84932;BME280;75193;53.980;13.902;2024-01-06T12:37:37;101661.22;;;-0.68;68.29
84932;BME280;75193;53.980;13.902;2024-01-06T12:40:04;101653.53;;;-0.68;67.70
84932;BME280;75193;53.980;13.902;2024-01-06T12:42:29;101650.97;;;-0.70;68.03